createdAt,value
2018-07-11T00:00:31.403Z,89.47
2018-07-11T00:01:11.977Z,89.47
2018-07-11T00:01:52.543Z,89.65
2018-07-11T00:02:33.116Z,89.56
2018-07-11T00:03:13.688Z,89.37
2018-07-11T00:03:54.255Z,89.94
2018-07-11T00:04:34.823Z,89.85
2018-07-11T00:05:15.392Z,90.14
2018-07-11T00:05:55.967Z,90.04
2018-07-11T00:06:36.532Z,90.04
2018-07-11T00:07:17.108Z,90.52
2018-07-11T00:07:57.675Z,90.33
2018-07-11T00:08:38.251Z,90.33
2018-07-11T00:09:18.819Z,91
2018-07-11T00:09:59.381Z,90.81
2018-07-11T00:10:39.960Z,90.61
2018-07-11T00:11:20.523Z,90.61
2018-07-11T00:12:01.139Z,90.81
2018-07-11T00:12:41.667Z,90.81
2018-07-11T00:13:22.224Z,90.9
2018-07-11T00:14:02.783Z,90.23
2018-07-11T00:14:43.355Z,90.52
2018-07-11T00:15:23.926Z,90.61
2018-07-11T00:16:04.481Z,90.33
2018-07-11T00:16:45.051Z,90.81
2018-07-11T00:17:25.632Z,90.52
2018-07-11T00:18:06.190Z,90.71
2018-07-11T00:18:46.762Z,90.33
2018-07-11T00:19:27.346Z,90.42
2018-07-11T00:20:07.918Z,90.23
2018-07-11T00:20:48.469Z,91.09
2018-07-11T00:21:29.039Z,90.81
2018-07-11T00:22:09.589Z,90.71
2018-07-11T00:22:50.140Z,90.81
2018-07-11T00:23:30.695Z,91.09
2018-07-11T00:24:11.288Z,91.09
2018-07-11T00:24:51.863Z,91.48
2018-07-11T00:25:32.447Z,91.67
2018-07-11T00:26:12.993Z,91.28
2018-07-11T00:26:53.538Z,91.38
2018-07-11T00:27:34.104Z,91.38
2018-07-11T00:28:14.658Z,91.09
2018-07-11T00:28:55.232Z,91.38
2018-07-11T00:29:35.810Z,91.09
2018-07-11T00:30:16.387Z,91.38
2018-07-11T00:30:56.933Z,91.38
2018-07-11T00:31:37.514Z,91.28
2018-07-11T00:32:18.112Z,91.48
2018-07-11T00:32:58.690Z,91.57
2018-07-11T00:33:39.255Z,92.15
2018-07-11T00:34:19.813Z,92.15
2018-07-11T00:35:00.367Z,92.01
2018-07-11T00:35:40.933Z,91.77
2018-07-11T00:36:21.488Z,91.67
2018-07-11T00:37:02.065Z,91.86
2018-07-11T00:37:42.607Z,91.96
2018-07-11T00:38:23.188Z,91.96
2018-07-11T00:39:03.745Z,92.15
2018-07-11T00:39:44.300Z,92.24
2018-07-11T00:40:24.866Z,92.34
2018-07-11T00:41:05.423Z,92.34
2018-07-11T00:41:45.978Z,91.86
2018-07-11T00:42:26.539Z,92.05
2018-07-11T00:43:07.101Z,91.53
2018-07-11T00:43:47.661Z,92.24
2018-07-11T00:44:28.225Z,91.96
2018-07-11T00:45:08.805Z,92.24
2018-07-11T00:45:49.384Z,92.34
2018-07-11T00:46:29.927Z,92.1
2018-07-11T00:47:10.491Z,92.34
2018-07-11T00:47:51.059Z,92.24
2018-07-11T00:48:31.632Z,92.15
2018-07-11T00:49:12.186Z,92.24
2018-07-11T00:49:52.763Z,92.34
2018-07-11T00:50:33.334Z,92.24
2018-07-11T00:51:13.880Z,92.15
2018-07-11T00:51:54.465Z,92.44
2018-07-11T00:52:35.048Z,92.15
2018-07-11T00:53:15.622Z,92.39
2018-07-11T00:53:56.188Z,92.34
2018-07-11T00:54:36.754Z,92.15
2018-07-11T00:55:17.346Z,92.05
2018-07-11T00:55:57.932Z,92.24
2018-07-11T00:56:38.496Z,92.15
2018-07-11T00:57:19.067Z,92.05
2018-07-11T00:57:59.640Z,92.63
2018-07-11T00:58:40.206Z,91.96
2018-07-11T00:59:20.776Z,92.15
2018-07-11T01:00:01.321Z,91.96
2018-07-11T01:00:41.892Z,91.77
2018-07-11T01:01:22.444Z,92.34
2018-07-11T01:02:03.004Z,92.24
2018-07-11T01:02:43.561Z,92.44
2018-07-11T01:03:24.140Z,92.34
2018-07-11T01:04:04.704Z,91.67
2018-07-11T01:04:45.260Z,92.15
2018-07-11T01:05:25.836Z,91.77
2018-07-11T01:06:06.409Z,91.86
2018-07-11T01:06:46.982Z,92.24
2018-07-11T01:07:27.549Z,91.96
2018-07-11T01:08:08.122Z,92.3
2018-07-11T01:08:48.677Z,91.86
2018-07-11T01:09:29.242Z,92.24
2018-07-11T01:10:09.810Z,92.05
2018-07-11T01:10:50.359Z,92.15
2018-07-11T01:11:30.921Z,91.86
2018-07-11T01:12:11.479Z,92.15
2018-07-11T01:12:52.038Z,91.72
2018-07-11T01:13:32.604Z,92.15
2018-07-11T01:14:13.180Z,92.05
2018-07-11T01:14:53.742Z,91.77
2018-07-11T01:15:34.301Z,91.86
2018-07-11T01:16:14.869Z,91.67
2018-07-11T01:16:55.424Z,91.86
2018-07-11T01:17:35.999Z,92.34
2018-07-11T01:18:16.564Z,92.24
2018-07-11T01:18:57.129Z,92.05
2018-07-11T01:19:37.706Z,92.2
2018-07-11T01:20:18.266Z,92.05
2018-07-11T01:20:58.842Z,92.1
2018-07-11T01:21:39.422Z,92.54
2018-07-11T01:22:19.987Z,92.15
2018-07-11T01:23:00.557Z,92.1
2018-07-11T01:23:41.121Z,92.05
2018-07-11T01:24:21.707Z,92.34
2018-07-11T01:25:02.277Z,92.54
2018-07-11T01:25:42.873Z,92.44
2018-07-11T01:26:23.437Z,92.54
2018-07-11T01:27:03.988Z,92.05
2018-07-11T01:27:44.525Z,92.15
2018-07-11T01:28:25.094Z,92.15
2018-07-11T01:29:05.663Z,92.3
2018-07-11T01:29:46.234Z,92.05
2018-07-11T01:30:26.814Z,92.49
2018-07-11T01:31:07.384Z,92.54
2018-07-11T01:31:47.953Z,92.24
2018-07-11T01:32:28.532Z,93.01
2018-07-11T01:33:09.091Z,93.01
2018-07-11T01:33:49.656Z,93.01
2018-07-11T01:34:30.224Z,92.34
2018-07-11T01:35:10.779Z,92.24
2018-07-11T01:35:51.334Z,92.24
2018-07-11T01:36:31.888Z,92.63
2018-07-11T01:37:12.447Z,92.72
2018-07-11T01:37:53.001Z,92.24
2018-07-11T01:38:33.574Z,92.15
2018-07-11T01:39:14.153Z,92.24
2018-07-11T01:39:54.729Z,92.24
2018-07-11T01:40:35.293Z,92.34
2018-07-11T01:41:15.845Z,92.24
2018-07-11T01:41:56.411Z,92.34
2018-07-11T01:42:36.959Z,93.01
2018-07-11T01:43:17.534Z,93.01
2018-07-11T01:43:58.100Z,92.63
2018-07-11T01:44:38.666Z,92.82
2018-07-11T01:45:19.238Z,92.82
2018-07-11T01:45:59.802Z,92.63
2018-07-11T01:46:40.379Z,92.44
2018-07-11T01:47:20.933Z,92.82
2018-07-11T01:48:01.497Z,92.82
2018-07-11T01:48:42.065Z,92.91
2018-07-11T01:49:22.647Z,92.63
2018-07-11T01:50:03.217Z,92.82
2018-07-11T01:50:43.794Z,92.82
2018-07-11T01:51:24.339Z,93.01
2018-07-11T01:52:04.910Z,92.54
2018-07-11T01:52:45.478Z,92.54
2018-07-11T01:53:26.048Z,92.63
2018-07-11T01:54:06.622Z,92.63
2018-07-11T01:54:47.177Z,92.34
2018-07-11T01:55:27.753Z,92.72
2018-07-11T01:56:08.311Z,93.01
2018-07-11T01:56:48.880Z,93.3
2018-07-11T01:57:29.465Z,93.11
2018-07-11T01:58:10.016Z,93.4
2018-07-11T01:58:50.560Z,93.4
2018-07-11T01:59:31.125Z,93.49
2018-07-11T02:00:11.679Z,93.21
2018-07-11T02:00:52.249Z,93.01
2018-07-11T02:01:32.828Z,93.93
2018-07-11T02:02:13.386Z,93.59
2018-07-11T02:02:53.973Z,93.11
2018-07-11T02:03:34.525Z,93.3
2018-07-11T02:04:15.085Z,92.87
2018-07-11T02:04:55.647Z,93.01
2018-07-11T02:05:36.216Z,93.3
2018-07-11T02:06:16.783Z,93.01
2018-07-11T02:06:57.352Z,93.21
2018-07-11T02:07:37.918Z,93.11
2018-07-11T02:08:18.494Z,93.26
2018-07-11T02:08:59.052Z,93.11
2018-07-11T02:09:39.617Z,92.91
2018-07-11T02:10:20.181Z,93.21
2018-07-11T02:11:00.741Z,93.01
2018-07-11T02:11:41.309Z,93.01
2018-07-11T02:12:21.877Z,93.4
2018-07-11T02:13:02.450Z,93.3
2018-07-11T02:13:43.015Z,93.3
2018-07-11T02:14:23.576Z,93.3
2018-07-11T02:15:04.137Z,93.3
2018-07-11T02:15:44.770Z,93.4
2018-07-11T02:16:25.288Z,93.11
2018-07-11T02:17:05.861Z,93.01
2018-07-11T02:17:46.429Z,92.91
2018-07-11T02:18:27.002Z,93.78
2018-07-11T02:19:07.588Z,93.59
2018-07-11T02:19:48.160Z,93.68
2018-07-11T02:20:28.713Z,93.68
2018-07-11T02:21:09.286Z,93.78
2018-07-11T02:21:49.857Z,93.68
2018-07-11T02:22:30.431Z,93.49
2018-07-11T02:23:10.998Z,93.4
2018-07-11T02:23:51.560Z,93.49
2018-07-11T02:24:32.112Z,93.49
2018-07-11T02:25:12.683Z,93.73
2018-07-11T02:25:53.256Z,93.88
2018-07-11T02:26:33.824Z,93.78
2018-07-11T02:27:14.392Z,93.78
2018-07-11T02:27:54.958Z,93.83
2018-07-11T02:28:35.515Z,93.97
2018-07-11T02:29:16.074Z,93.68
2018-07-11T02:29:56.646Z,93.88
2018-07-11T02:30:37.221Z,93.78
2018-07-11T02:31:17.780Z,94.54
2018-07-11T02:31:58.359Z,93.97
2018-07-11T02:32:38.912Z,94.54
2018-07-11T02:33:19.479Z,93.78
2018-07-11T02:34:00.034Z,93.97
2018-07-11T02:34:40.601Z,94.07
2018-07-11T02:35:21.169Z,94.07
2018-07-11T02:36:01.732Z,93.59
2018-07-11T02:36:42.302Z,93.97
2018-07-11T02:37:22.836Z,93.97
2018-07-11T02:38:03.400Z,93.93
2018-07-11T02:38:43.966Z,93.78
2018-07-11T02:39:24.532Z,93.78
2018-07-11T02:40:05.076Z,93.97
2018-07-11T02:40:45.637Z,93.78
2018-07-11T02:41:26.203Z,93.78
2018-07-11T02:42:06.772Z,94.07
2018-07-11T02:42:47.339Z,93.88
2018-07-11T02:43:27.927Z,93.97
2018-07-11T02:44:08.471Z,93.97
2018-07-11T02:44:49.042Z,93.97
2018-07-11T02:45:29.603Z,93.78
2018-07-11T02:46:10.170Z,93.4
2018-07-11T02:46:50.772Z,93.3
2018-07-11T02:47:31.337Z,93.59
2018-07-11T02:48:11.898Z,93.78
2018-07-11T02:48:52.450Z,93.68
2018-07-11T02:49:33.037Z,93.68
2018-07-11T02:50:13.608Z,93.68
2018-07-11T02:50:54.161Z,93.4
2018-07-11T02:51:34.731Z,93.78
2018-07-11T02:52:15.286Z,93.68
2018-07-11T02:52:55.852Z,93.4
2018-07-11T02:53:36.412Z,93.63
2018-07-11T02:54:16.971Z,93.49
2018-07-11T02:54:57.544Z,93.44
2018-07-11T02:55:38.114Z,93.63
2018-07-11T02:56:18.684Z,93.83
2018-07-11T02:56:59.254Z,93.73
2018-07-11T02:57:39.813Z,93.83
2018-07-11T02:58:20.381Z,93.83
2018-07-11T02:59:00.988Z,93.73
2018-07-11T02:59:41.530Z,93.83
2018-07-11T03:00:22.094Z,93.44
2018-07-11T03:01:02.665Z,93.88
2018-07-11T03:01:43.214Z,93.93
2018-07-11T03:02:23.776Z,94.02
2018-07-11T03:03:04.341Z,94.02
2018-07-11T03:03:44.909Z,93.83
2018-07-11T03:04:25.475Z,94.12
2018-07-11T03:05:06.044Z,93.63
2018-07-11T03:05:46.606Z,93.93
2018-07-11T03:06:27.180Z,93.88
2018-07-11T03:07:07.745Z,93.63
2018-07-11T03:07:48.301Z,93.97
2018-07-11T03:08:28.867Z,93.68
2018-07-11T03:09:09.433Z,93.97
2018-07-11T03:09:50.004Z,93.88
2018-07-11T03:10:30.554Z,93.88
2018-07-11T03:11:11.124Z,94.07
2018-07-11T03:11:51.671Z,93.21
2018-07-11T03:12:32.232Z,94.17
2018-07-11T03:13:12.790Z,93.97
2018-07-11T03:13:53.358Z,93.88
2018-07-11T03:14:33.920Z,93.88
2018-07-11T03:15:14.489Z,93.68
2018-07-11T03:15:55.063Z,93.83
2018-07-11T03:16:35.613Z,93.83
2018-07-11T03:17:16.176Z,93.3
2018-07-11T03:17:56.749Z,93.44
2018-07-11T03:18:37.315Z,93.73
2018-07-11T03:19:17.883Z,93.88
2018-07-11T03:19:58.441Z,93.63
2018-07-11T03:20:39.017Z,93.83
2018-07-11T03:21:19.570Z,93.83
2018-07-11T03:22:00.135Z,93.63
2018-07-11T03:22:40.699Z,93.83
2018-07-11T03:23:21.248Z,93.88
2018-07-11T03:24:01.812Z,93.78
2018-07-11T03:24:42.369Z,93.83
2018-07-11T03:25:22.937Z,93.93
2018-07-11T03:26:03.500Z,93.93
2018-07-11T03:26:44.075Z,93.73
2018-07-11T03:27:24.636Z,94.5
2018-07-11T03:28:05.196Z,94.31
2018-07-11T03:28:45.752Z,94.35
2018-07-11T03:29:26.313Z,94.26
2018-07-11T03:30:06.872Z,94.12
2018-07-11T03:30:47.426Z,94.21
2018-07-11T03:31:27.994Z,94.21
2018-07-11T03:32:08.565Z,93.88
2018-07-11T03:32:49.124Z,94.5
2018-07-11T03:33:29.684Z,93.83
2018-07-11T03:34:10.247Z,94.02
2018-07-11T03:34:50.826Z,93.73
2018-07-11T03:35:31.385Z,93.73
2018-07-11T03:36:11.956Z,93.83
2018-07-11T03:36:52.536Z,93.83
2018-07-11T03:37:33.095Z,93.83
2018-07-11T03:38:13.655Z,93.93
2018-07-11T03:38:54.219Z,93.93
2018-07-11T03:39:34.766Z,93.88
2018-07-11T03:40:15.317Z,94.12
2018-07-11T03:40:55.901Z,93.93
2018-07-11T03:41:36.465Z,93.93
2018-07-11T03:42:17.031Z,93.93
2018-07-11T03:42:57.598Z,93.93
2018-07-11T03:43:38.157Z,93.83
2018-07-11T03:44:18.736Z,94.31
2018-07-11T03:44:59.286Z,94.4
2018-07-11T03:45:39.846Z,94.5
2018-07-11T03:46:20.415Z,94.26
2018-07-11T03:47:00.979Z,94.21
2018-07-11T03:47:41.561Z,94.4
2018-07-11T03:48:22.110Z,94.21
2018-07-11T03:49:02.676Z,94.21
2018-07-11T03:49:43.229Z,94.4
2018-07-11T03:50:23.796Z,94.21
2018-07-11T03:51:04.368Z,94.31
2018-07-11T03:51:44.936Z,94.02
2018-07-11T03:52:25.508Z,93.93
2018-07-11T03:53:06.060Z,94.02
2018-07-11T03:53:46.685Z,93.73
2018-07-11T03:54:27.194Z,93.54
2018-07-11T03:55:07.771Z,93.59
2018-07-11T03:55:48.341Z,93.78
2018-07-11T03:56:28.914Z,93.49
2018-07-11T03:57:09.479Z,93.68
2018-07-11T03:57:50.041Z,93.35
2018-07-11T03:58:30.594Z,93.63
2018-07-11T03:59:11.156Z,93.49
2018-07-11T03:59:51.727Z,93.63
2018-07-11T04:00:32.284Z,93.63
2018-07-11T04:01:12.849Z,93.44
2018-07-11T04:01:53.420Z,93.63
2018-07-11T04:02:33.984Z,93.44
2018-07-11T04:03:14.550Z,93.35
2018-07-11T04:03:55.113Z,93.73
2018-07-11T04:04:35.701Z,93.35
2018-07-11T04:05:16.282Z,93.35
2018-07-11T04:05:56.836Z,93.54
2018-07-11T04:06:37.396Z,93.35
2018-07-11T04:07:17.945Z,93.4
2018-07-11T04:07:58.502Z,93.73
2018-07-11T04:08:39.058Z,93.97
2018-07-11T04:09:19.624Z,93.93
2018-07-11T04:10:00.189Z,93.83
2018-07-11T04:10:40.760Z,93.68
2018-07-11T04:11:21.336Z,93.68
2018-07-11T04:12:01.899Z,93.4
2018-07-11T04:12:42.456Z,93.68
2018-07-11T04:13:23.023Z,93.63
2018-07-11T04:14:03.592Z,93.01
2018-07-11T04:14:44.165Z,92.87
2018-07-11T04:15:24.731Z,92.91
2018-07-11T04:16:05.300Z,92.77
2018-07-11T04:16:45.857Z,92.97
2018-07-11T04:17:26.413Z,92.97
2018-07-11T04:18:06.981Z,92.87
2018-07-11T04:18:47.537Z,92.68
2018-07-11T04:19:28.119Z,92.39
2018-07-11T04:20:08.687Z,93.06
2018-07-11T04:20:49.245Z,93.16
2018-07-11T04:21:29.824Z,93.35
2018-07-11T04:22:10.372Z,93.06
2018-07-11T04:22:50.943Z,92.87
2018-07-11T04:23:31.521Z,92.97
2018-07-11T04:24:12.090Z,93.26
2018-07-11T04:24:52.662Z,93.35
2018-07-11T04:25:33.213Z,93.35
2018-07-11T04:26:13.792Z,92.87
2018-07-11T04:26:54.348Z,92.63
2018-07-11T04:27:34.919Z,93.21
2018-07-11T04:28:15.483Z,93.21
2018-07-11T04:28:56.062Z,92.91
2018-07-11T04:29:36.620Z,92.82
2018-07-11T04:30:17.181Z,93.01
2018-07-11T04:30:57.723Z,92.82
2018-07-11T04:31:38.287Z,93.01
2018-07-11T04:32:18.858Z,92.72
2018-07-11T04:32:59.414Z,92.24
2018-07-11T04:33:39.985Z,92.34
2018-07-11T04:34:20.565Z,92.39
2018-07-11T04:35:01.141Z,92.54
2018-07-11T04:35:41.722Z,92.34
2018-07-11T04:36:22.289Z,92.24
2018-07-11T04:37:02.861Z,92.34
2018-07-11T04:37:43.429Z,91.96
2018-07-11T04:38:23.981Z,92.24
2018-07-11T04:39:04.560Z,92.24
2018-07-11T04:39:45.099Z,92.24
2018-07-11T04:40:25.673Z,91.77
2018-07-11T04:41:06.235Z,91.96
2018-07-11T04:41:46.879Z,92.05
2018-07-11T04:42:27.399Z,92.34
2018-07-11T04:43:07.985Z,92.24
2018-07-11T04:43:48.548Z,91.96
2018-07-11T04:44:29.114Z,91.96
2018-07-11T04:45:09.696Z,92.01
2018-07-11T04:45:50.268Z,92.15
2018-07-11T04:46:30.818Z,92.15
2018-07-11T04:47:11.402Z,92.34
2018-07-11T04:47:51.972Z,92.15
2018-07-11T04:48:32.527Z,92.44
2018-07-11T04:49:13.102Z,92.34
2018-07-11T04:49:53.664Z,92.54
2018-07-11T04:50:34.216Z,92.15
2018-07-11T04:51:14.761Z,92.54
2018-07-11T04:51:55.335Z,92.44
2018-07-11T04:52:35.956Z,92.34
2018-07-11T04:53:16.497Z,92.34
2018-07-11T04:53:57.059Z,92.82
2018-07-11T04:54:37.633Z,92.34
2018-07-11T04:55:18.178Z,92.34
2018-07-11T04:55:58.722Z,92.24
2018-07-11T04:56:39.278Z,92.24
2018-07-11T04:57:19.837Z,91.96
2018-07-11T04:58:00.399Z,91.77
2018-07-11T04:58:40.970Z,92.15
2018-07-11T04:59:21.555Z,92.34
2018-07-11T05:00:02.104Z,92.24
2018-07-11T05:00:42.683Z,91.86
2018-07-11T05:01:23.224Z,92.24
2018-07-11T05:02:03.777Z,91.96
2018-07-11T05:02:44.325Z,92.15
2018-07-11T05:03:24.879Z,91.86
2018-07-11T05:04:05.433Z,92.05
2018-07-11T05:04:45.986Z,92.05
2018-07-11T05:05:26.520Z,92.15
2018-07-11T05:06:07.085Z,91.96
2018-07-11T05:06:47.632Z,92.15
2018-07-11T05:07:28.183Z,91.67
2018-07-11T05:08:08.746Z,91.62
2018-07-11T05:08:49.314Z,91.91
2018-07-11T05:09:29.889Z,90.95
2018-07-11T05:10:10.443Z,91.14
2018-07-11T05:10:51.061Z,91.62
2018-07-11T05:11:31.595Z,91.67
2018-07-11T05:12:12.149Z,91.24
2018-07-11T05:12:52.718Z,91.05
2018-07-11T05:13:33.291Z,90.81
2018-07-11T05:14:13.843Z,90.56
2018-07-11T05:14:54.403Z,90.75
2018-07-11T05:15:35.017Z,90.85
2018-07-11T05:16:15.621Z,90.28
2018-07-11T05:16:56.164Z,91.05
2018-07-11T05:17:36.724Z,90.85
2018-07-11T05:18:17.299Z,91.05
2018-07-11T05:18:57.859Z,90.85
2018-07-11T05:19:38.433Z,90.28
2018-07-11T05:20:19.011Z,90.18
2018-07-11T05:20:59.574Z,90.28
2018-07-11T05:21:40.132Z,90.37
2018-07-11T05:22:20.695Z,90.47
2018-07-11T05:23:01.247Z,90.37
2018-07-11T05:23:41.806Z,90.37
2018-07-11T05:24:22.359Z,90.56
2018-07-11T05:25:02.910Z,90.47
2018-07-11T05:25:43.499Z,90.08
2018-07-11T05:26:24.058Z,90.56
2018-07-11T05:27:04.624Z,90.28
2018-07-11T05:27:45.270Z,90.85
2018-07-11T05:28:25.751Z,90.85
2018-07-11T05:29:06.301Z,90.66
2018-07-11T05:29:46.866Z,90.47
2018-07-11T05:30:27.421Z,90.56
2018-07-11T05:31:07.981Z,90.95
2018-07-11T05:31:48.540Z,90.37
2018-07-11T05:32:29.110Z,90.37
2018-07-11T05:33:09.683Z,90.28
2018-07-11T05:33:50.252Z,90.18
2018-07-11T05:34:30.839Z,89.7
2018-07-11T05:35:11.390Z,89.79
2018-07-11T05:35:51.954Z,89.99
2018-07-11T05:36:32.513Z,90.08
2018-07-11T05:37:13.197Z,89.51
2018-07-11T05:37:53.779Z,88.65
2018-07-11T05:38:34.350Z,89.32
2018-07-11T05:39:14.905Z,89.22
2018-07-11T05:39:55.511Z,88.84
2018-07-11T05:40:36.080Z,88.84
2018-07-11T05:41:16.648Z,88.74
2018-07-11T05:41:57.210Z,88.26
2018-07-11T05:42:37.779Z,88.35
2018-07-11T05:43:18.335Z,87.98
2018-07-11T05:43:58.908Z,88.45
2018-07-11T05:44:39.457Z,88.17
2018-07-11T05:45:20.020Z,88.26
2018-07-11T05:46:00.572Z,87.88
2018-07-11T05:46:41.183Z,88.55
2018-07-11T05:47:21.768Z,88.45
2018-07-11T05:48:02.337Z,88.74
2018-07-11T05:48:42.900Z,88.84
2018-07-11T05:49:23.464Z,89.12
2018-07-11T05:50:04.026Z,88.98
2018-07-11T05:50:44.581Z,89.12
2018-07-11T05:51:25.157Z,88.93
2018-07-11T05:52:05.810Z,89.12
2018-07-11T05:52:46.295Z,88.31
2018-07-11T05:53:26.856Z,88.59
2018-07-11T05:54:07.408Z,88.65
2018-07-11T05:54:48.039Z,88.49
2018-07-11T05:55:28.600Z,88.79
2018-07-11T05:56:09.156Z,88.79
2018-07-11T05:56:49.748Z,88.98
2018-07-11T05:57:30.363Z,88.88
2018-07-11T05:58:10.887Z,88.69
2018-07-11T05:58:51.444Z,88.11
2018-07-11T05:59:32.015Z,88.02
2018-07-11T06:00:12.574Z,87.92
2018-07-11T06:00:53.177Z,87.54
2018-07-11T06:01:33.726Z,87.54
2018-07-11T06:02:14.297Z,87.68
2018-07-11T06:02:54.853Z,87.29
2018-07-11T06:03:35.417Z,86.91
2018-07-11T06:04:15.961Z,86.72
2018-07-11T06:04:56.537Z,87.19
2018-07-11T06:05:37.116Z,86.33
2018-07-11T06:06:17.687Z,86.05
2018-07-11T06:06:58.231Z,86.09
2018-07-11T06:07:38.793Z,85.89
2018-07-11T06:08:19.361Z,85.22
2018-07-11T06:08:59.931Z,85.17
2018-07-11T06:09:40.492Z,84.5
2018-07-11T06:10:21.071Z,84.59
2018-07-11T06:11:01.656Z,84.4
2018-07-11T06:11:42.226Z,83.83
2018-07-11T06:12:22.794Z,83.25
2018-07-11T06:13:03.402Z,82.96
2018-07-11T06:13:44.027Z,82.76
2018-07-11T06:14:24.477Z,82.38
2018-07-11T06:15:05.047Z,82.57
2018-07-11T06:15:45.651Z,82.09
2018-07-11T06:16:26.320Z,81.61
2018-07-11T06:17:07.209Z,81.13
2018-07-11T06:17:47.824Z,81.32
2018-07-11T06:18:28.382Z,81.04
2018-07-11T06:19:09.053Z,81.32
2018-07-11T06:19:49.619Z,81.13
2018-07-11T06:20:30.169Z,81.42
2018-07-11T06:21:10.741Z,80.94
2018-07-11T06:21:51.313Z,80.36
2018-07-11T06:22:31.916Z,80.36
2018-07-11T06:23:12.488Z,80.46
2018-07-11T06:23:53.063Z,80.94
2018-07-11T06:24:33.629Z,80.65
2018-07-11T06:25:14.211Z,80.65
2018-07-11T06:25:54.788Z,80.27
2018-07-11T06:26:35.361Z,80.36
2018-07-11T06:27:15.914Z,80.17
2018-07-11T06:27:56.531Z,80.27
2018-07-11T06:28:37.051Z,80.17
2018-07-11T06:29:17.628Z,80.27
2018-07-11T06:29:58.204Z,80.27
2018-07-11T06:30:38.757Z,80.55
2018-07-11T06:31:19.324Z,80.36
2018-07-11T06:31:59.889Z,80.46
2018-07-11T06:32:40.442Z,80.55
2018-07-11T06:33:21.008Z,80.36
2018-07-11T06:34:01.567Z,80.17
2018-07-11T06:34:42.128Z,80.07
2018-07-11T06:35:22.697Z,79.79
2018-07-11T06:36:03.279Z,79.79
2018-07-11T06:36:43.837Z,79.69
2018-07-11T06:37:24.381Z,79.4
2018-07-11T06:38:04.935Z,79.69
2018-07-11T06:38:45.497Z,79.98
2018-07-11T06:39:26.155Z,80.17
2018-07-11T06:40:06.937Z,79.98
2018-07-11T06:40:47.496Z,79.98
2018-07-11T06:41:28.072Z,80.07
2018-07-11T06:42:08.626Z,80.36
2018-07-11T06:42:49.209Z,80.5
2018-07-11T06:43:29.763Z,80.21
2018-07-11T06:44:10.329Z,80.02
2018-07-11T06:44:50.939Z,79.98
2018-07-11T06:45:31.482Z,80.46
2018-07-11T06:46:12.070Z,80.5
2018-07-11T06:46:52.645Z,80.17
2018-07-11T06:47:33.230Z,79.73
2018-07-11T06:48:13.795Z,79.92
2018-07-11T06:48:54.341Z,79.44
2018-07-11T06:49:34.910Z,79.35
2018-07-11T06:50:15.459Z,79.48
2018-07-11T06:50:56.024Z,79.28
2018-07-11T06:51:36.623Z,78.23
2018-07-11T06:52:17.174Z,76.98
2018-07-11T06:52:57.770Z,76.44
2018-07-11T06:53:38.342Z,76.4
2018-07-11T06:54:18.934Z,76.21
2018-07-11T06:54:59.590Z,76.92
2018-07-11T06:55:40.161Z,77.21
2018-07-11T06:56:20.724Z,78.27
2018-07-11T06:57:01.307Z,78.98
2018-07-11T06:57:41.907Z,77.83
2018-07-11T06:58:22.470Z,76.96
2018-07-11T06:59:03.027Z,75.8
2018-07-11T06:59:43.602Z,75.32
2018-07-11T07:00:24.236Z,75.03
2018-07-11T07:01:04.773Z,74.26
2018-07-11T07:01:45.333Z,73.49
2018-07-11T07:02:25.909Z,73.82
2018-07-11T07:03:06.471Z,73.05
2018-07-11T07:03:47.080Z,71.98
2018-07-11T07:04:27.647Z,70.54
2018-07-11T07:05:08.237Z,69.77
2018-07-11T07:05:48.788Z,70.28
2018-07-11T07:06:29.384Z,70.28
2018-07-11T07:07:09.944Z,69.9
2018-07-11T07:07:50.519Z,70.38
2018-07-11T07:08:31.090Z,70.7
2018-07-11T07:09:11.663Z,69.84
2018-07-11T07:09:52.224Z,68.39
2018-07-11T07:10:32.784Z,67.04
2018-07-11T07:11:13.354Z,66.94
2018-07-11T07:11:53.934Z,68.81
2018-07-11T07:12:34.503Z,68.59
2018-07-11T07:13:15.109Z,67.36
2018-07-11T07:13:55.692Z,66.88
2018-07-11T07:14:36.257Z,67.17
2018-07-11T07:15:16.827Z,66.59
2018-07-11T07:15:57.390Z,66.59
2018-07-11T07:16:38.013Z,65.63
2018-07-11T07:17:18.523Z,65.91
2018-07-11T07:17:59.119Z,66.01
2018-07-11T07:18:39.681Z,66.97
2018-07-11T07:19:20.253Z,66.2
2018-07-11T07:20:00.809Z,66.75
2018-07-11T07:20:41.374Z,66.46
2018-07-11T07:21:21.934Z,66.75
2018-07-11T07:22:02.516Z,67.04
2018-07-11T07:22:43.130Z,66.75
2018-07-11T07:23:23.687Z,66.46
2018-07-11T07:24:04.242Z,66.36
2018-07-11T07:24:44.824Z,66.27
2018-07-11T07:25:25.379Z,66.46
2018-07-11T07:26:05.967Z,66.27
2018-07-11T07:26:46.556Z,66.46
2018-07-11T07:27:27.126Z,66.66
2018-07-11T07:28:07.707Z,66.66
2018-07-11T07:28:48.261Z,66.46
2018-07-11T07:29:28.844Z,65.5
2018-07-11T07:30:09.411Z,66.46
2018-07-11T07:30:49.962Z,66.52
2018-07-11T07:31:30.532Z,66.72
2018-07-11T07:32:11.090Z,67.1
2018-07-11T07:32:51.663Z,67.4
2018-07-11T07:33:32.221Z,67.4
2018-07-11T07:34:12.792Z,67.3
2018-07-11T07:34:53.375Z,67.36
2018-07-11T07:35:33.976Z,67.55
2018-07-11T07:36:14.545Z,67.88
2018-07-11T07:36:55.182Z,67.94
2018-07-11T07:37:35.707Z,67.65
2018-07-11T07:38:16.272Z,68.13
2018-07-11T07:38:56.836Z,67.65
2018-07-11T07:39:37.402Z,67.16
2018-07-11T07:40:17.975Z,66.69
2018-07-11T07:40:58.543Z,65.33
2018-07-11T07:41:39.120Z,65.43
2018-07-11T07:42:19.662Z,66.39
2018-07-11T07:43:00.249Z,66.39
2018-07-11T07:43:40.843Z,67.46
2018-07-11T07:44:21.404Z,68.23
2018-07-11T07:45:01.976Z,68.52
2018-07-11T07:45:42.560Z,68.45
2018-07-11T07:46:23.156Z,68.35
2018-07-11T07:47:03.748Z,68.93
2018-07-11T07:47:44.306Z,69.71
2018-07-11T07:48:24.873Z,68.39
2018-07-11T07:49:05.480Z,68.01
2018-07-11T07:49:46.043Z,66.94
2018-07-11T07:50:26.624Z,66.56
2018-07-11T07:51:07.191Z,66.01
2018-07-11T07:51:47.755Z,64.86
2018-07-11T07:52:28.338Z,62.73
2018-07-11T07:53:08.906Z,61.67
2018-07-11T07:53:49.461Z,62.15
2018-07-11T07:54:30.029Z,62.51
2018-07-11T07:55:10.610Z,63.37
2018-07-11T07:55:51.191Z,64.72
2018-07-11T07:56:31.752Z,65.11
2018-07-11T07:57:12.313Z,64.34
2018-07-11T07:57:52.879Z,63.82
2018-07-11T07:58:33.489Z,63.73
2018-07-11T07:59:14.059Z,65.75
2018-07-11T07:59:54.644Z,67.68
2018-07-11T08:00:35.374Z,67.81
2018-07-11T08:01:15.785Z,67.14
2018-07-11T08:01:56.361Z,67.04
2018-07-11T08:02:36.929Z,67.04
2018-07-11T08:03:17.495Z,64.28
2018-07-11T08:03:58.062Z,63.4
2018-07-11T08:04:38.648Z,61.57
2018-07-11T08:05:19.226Z,61.28
2018-07-11T08:05:59.786Z,62.15
2018-07-11T08:06:40.355Z,64.08
2018-07-11T08:07:20.939Z,65.17
2018-07-11T08:08:01.518Z,64.89
2018-07-11T08:08:42.088Z,63.82
2018-07-11T08:09:22.639Z,62.76
2018-07-11T08:10:03.212Z,62.18
2018-07-11T08:10:43.816Z,61.7
2018-07-11T08:11:24.414Z,61.89
2018-07-11T08:12:05.019Z,61.51
2018-07-11T08:12:45.668Z,60.99
2018-07-11T08:13:26.176Z,61.67
2018-07-11T08:14:06.790Z,61.77
2018-07-11T08:14:47.350Z,62.34
2018-07-11T08:15:27.916Z,62.34
2018-07-11T08:16:08.513Z,62.54
2018-07-11T08:16:49.115Z,63.18
2018-07-11T08:17:29.710Z,62.99
2018-07-11T08:18:10.272Z,63.47
2018-07-11T08:18:50.946Z,62.12
2018-07-11T08:19:31.519Z,61.83
2018-07-11T08:20:12.194Z,62.31
2018-07-11T08:20:52.768Z,62.66
2018-07-11T08:21:33.432Z,62.86
2018-07-11T08:22:13.909Z,63.44
2018-07-11T08:22:54.484Z,63.73
2018-07-11T08:23:35.062Z,64.02
2018-07-11T08:24:15.634Z,64.79
2018-07-11T08:24:56.560Z,64.5
2018-07-11T08:25:37.140Z,64.5
2018-07-11T08:26:17.708Z,64.56
2018-07-11T08:26:58.287Z,64.86
2018-07-11T08:27:38.838Z,64.86
2018-07-11T08:28:19.405Z,64.76
2018-07-11T08:28:59.991Z,64.66
2018-07-11T08:29:40.575Z,64.56
2018-07-11T08:30:21.139Z,64.47
2018-07-11T08:31:01.699Z,64.37
2018-07-11T08:31:42.239Z,64.76
2018-07-11T08:32:22.791Z,65.24
2018-07-11T08:33:03.351Z,65.24
2018-07-11T08:33:43.915Z,65.43
2018-07-11T08:34:24.502Z,66.11
2018-07-11T08:35:05.106Z,65.14
2018-07-11T08:35:45.649Z,65.2
2018-07-11T08:36:26.245Z,65.78
2018-07-11T08:37:06.828Z,65.2
2018-07-11T08:37:47.376Z,64.43
2018-07-11T08:38:27.938Z,64.73
2018-07-11T08:39:08.517Z,64.34
2018-07-11T08:39:49.103Z,64.63
2018-07-11T08:40:29.697Z,65.01
2018-07-11T08:41:10.253Z,65.4
2018-07-11T08:41:50.843Z,65.69
2018-07-11T08:42:31.404Z,65.2
2018-07-11T08:43:11.990Z,65.01
2018-07-11T08:43:52.541Z,65.2